Time;durP1;ratioP1;P1;durP2;ratioP2;P2;SDS_P1;SDS_P2;PMS_P1;PMS_P2;Temp;Humidity;BMP_temperature;BMP_pressure;BME280_temperature;BME280_humidity;BME280_pressure;Samples;Min_cycle;Max_cycle;Signal;HPM_P1;HPM_P2
2024/02/20 00:00:47;;;;;;;6.63;2.63;;;;;;;;;;5041120;28;20445;-87
2024/02/20 00:03:34;;;;;;;18.80;3.77;;;;;;;;;;5040672;28;20482;-86
2024/02/20 00:13:16;;;;;;;10.67;3.20;;;;;;;;;;5035060;28;20566;-88
2024/02/20 00:31:04;;;;;;;14.00;3.50;;;;;;;;;;4863272;29;20496;-86
2024/02/20 00:34:03;;;;;;;12.93;3.03;;;;;;;;;;4900983;29;20454;-86
2024/02/20 00:37:11;;;;;;;12.60;3.43;;;;;;;;;;4943579;28;20479;-86
2024/02/20 00:39:55;;;;;;;11.10;3.20;;;;;;;;;;5001526;28;20940;-87
2024/02/20 00:50:35;;;;;;;;;;;;;;;;;;;;;
2024/02/20 00:54:22;;;;;;;13.33;4.70;;;;;;;;;;4964579;28;20460;-86
2024/02/20 00:57:38;;;;;;;9.37;4.20;;;;;;;;;;4838309;29;20549;-87
2024/02/20 01:03:47;;;;;;;14.63;3.13;;;;;;;;;;4825887;29;21223;-86
2024/02/20 01:06:51;;;;;;;9.77;3.30;;;;;;;;;;4867556;28;20465;-89
2024/02/20 01:09:50;;;;;;;11.73;5.13;;;;;;;;;;4951650;28;20483;-86
2024/02/20 01:19:20;;;;;;;9.23;3.53;;;;;;;;;;4926576;29;20482;-87
2024/02/20 01:25:58;;;;;;;15.27;3.70;;;;;;;;;;4932175;28;20436;-87
2024/02/20 01:29:03;;;;;;;7.93;2.77;;;;;;;;;;4953982;28;20541;-87
2024/02/20 01:31:38;;;;;;;6.63;2.40;;;;;;;;;;4992845;22;20475;-86
2024/02/20 01:34:41;;;;;;;10.83;3.20;;;;;;;;;;5041681;28;20896;-84
2024/02/20 01:37:12;;;;;;;10.73;3.03;;;;;;;;;;5065058;28;20448;-86
2024/02/20 01:40:04;;;;;;;15.00;3.30;;;;;;;;;;5049106;28;20944;-87
2024/02/20 01:46:25;;;;;;;15.23;3.67;;;;;;;;;;5089755;28;20411;-85
2024/02/20 01:49:10;;;;;;;8.70;2.80;;;;;;;;;;5071275;28;20518;-86
2024/02/20 01:52:22;;;;;;;15.43;3.00;;;;;;;;;;5079094;28;20488;-85
2024/02/20 01:55:11;;;;;;;12.93;3.90;;;;;;;;;;5069685;28;20616;-85
2024/02/20 01:58:05;;;;;;;11.40;3.27;;;;;;;;;;5097336;28;20480;-85
2024/02/20 02:04:18;;;;;;;13.30;3.80;;;;;;;;;;5056042;28;20469;-86
2024/02/20 02:07:43;;;;;;;;;;;;;;;;;;;;;
2024/02/20 02:11:02;;;;;;;12.93;3.50;;;;;;;;;;4962881;28;20456;-84
2024/02/20 02:13:54;;;;;;;9.37;3.37;;;;;;;;;;5016388;28;20455;-86
2024/02/20 02:16:37;;;;;;;14.57;3.40;;;;;;;;;;5023272;28;20445;-86
2024/02/20 02:23:06;;;;;;;9.50;3.23;;;;;;;;;;5024036;28;20464;-83
2024/02/20 02:26:14;;;;;;;14.60;3.67;;;;;;;;;;5015281;28;20446;-86
2024/02/20 02:29:00;;;;;;;13.27;3.50;;;;;;;;;;4950804;28;20472;-86
2024/02/20 02:31:45;;;;;;;12.77;4.50;;;;;;;;;;4938326;28;21010;-86
2024/02/20 02:37:40;;;;;;;16.47;3.80;;;;;;;;;;4959661;28;20456;-85
2024/02/20 02:40:24;;;;;;;6.57;3.33;;;;;;;;;;4949545;28;20576;-86
2024/02/20 02:43:11;;;;;;;5.40;3.27;;;;;;;;;;4932990;28;20538;-85
2024/02/20 02:46:02;;;;;;;10.73;3.73;;;;;;;;;;4974117;28;20453;-85
2024/02/20 02:48:54;;;;;;;17.00;5.40;;;;;;;;;;4983705;28;20465;-84
2024/02/20 02:51:53;;;;;;;15.67;4.20;;;;;;;;;;4981391;28;20578;-84
2024/02/20 02:54:46;;;;;;;15.77;4.77;;;;;;;;;;4985784;28;20442;-86
2024/02/20 02:57:17;;;;;;;13.80;4.80;;;;;;;;;;5012726;28;20543;-86
2024/02/20 02:59:53;;;;;;;17.03;5.50;;;;;;;;;;5016156;28;20579;-86
2024/02/20 03:02:28;;;;;;;15.97;5.40;;;;;;;;;;4996800;28;20474;-84
2024/02/20 03:05:10;;;;;;;20.20;4.77;;;;;;;;;;5007836;28;20533;-86
2024/02/20 03:07:49;;;;;;;13.47;4.73;;;;;;;;;;5105875;28;20450;-85
2024/02/20 03:10:26;;;;;;;14.60;4.90;;;;;;;;;;5076991;28;20493;-86
2024/02/20 03:13:25;;;;;;;10.00;4.63;;;;;;;;;;5066189;22;20503;-85
2024/02/20 03:16:28;;;;;;;14.87;5.07;;;;;;;;;;5032627;28;20444;-83
2024/02/20 03:19:17;;;;;;;14.23;5.80;;;;;;;;;;5034817;28;20474;-85
2024/02/20 03:22:10;;;;;;;10.90;4.27;;;;;;;;;;5041109;28;20602;-86
2024/02/20 03:24:46;;;;;;;11.33;4.67;;;;;;;;;;5060934;28;20487;-86
2024/02/20 03:27:38;;;;;;;11.07;4.97;;;;;;;;;;5049799;28;20566;-86
2024/02/20 03:30:33;;;;;;;15.30;5.67;;;;;;;;;;5032339;28;20459;-86
2024/02/20 03:33:32;;;;;;;11.70;4.67;;;;;;;;;;4986086;28;20533;-88
2024/02/20 03:39:24;;;;;;;13.37;5.10;;;;;;;;;;5040770;28;20480;-86
2024/02/20 03:42:21;;;;;;;11.33;5.40;;;;;;;;;;5025526;28;20480;-86
2024/02/20 03:44:59;;;;;;;16.43;5.50;;;;;;;;;;5019881;28;20887;-85
2024/02/20 03:47:34;;;;;;;13.70;6.10;;;;;;;;;;5046704;28;20476;-87
2024/02/20 03:50:33;;;;;;;16.43;5.07;;;;;;;;;;5045000;28;20508;-85
2024/02/20 03:53:27;;;;;;;17.17;5.63;;;;;;;;;;5001854;28;20476;-87
2024/02/20 03:56:19;;;;;;;18.77;5.70;;;;;;;;;;5026474;28;20633;-88
2024/02/20 03:59:17;;;;;;;;;;;;;;;;;;;;;
2024/02/20 04:05:06;;;;;;;14.07;5.10;;;;;;;;;;5041720;28;20448;-84
2024/02/20 04:07:38;;;;;;;11.30;5.63;;;;;;;;;;5047363;28;20468;-85
2024/02/20 04:10:29;;;;;;;15.93;4.97;;;;;;;;;;5016110;28;20453;-87
2024/02/20 04:13:10;;;;;;;12.70;5.30;;;;;;;;;;4959024;28;20558;-85
2024/02/20 04:16:03;;;;;;;12.80;5.50;;;;;;;;;;5049106;28;20449;-87
2024/02/20 04:18:47;;;;;;;17.37;6.30;;;;;;;;;;5043716;28;20503;-86
2024/02/20 04:21:32;;;;;;;16.60;6.30;;;;;;;;;;5019566;28;20494;-88
2024/02/20 04:24:28;;;;;;;11.67;5.60;;;;;;;;;;5024968;28;20459;-87
2024/02/20 04:27:00;;;;;;;8.17;5.20;;;;;;;;;;5029900;28;20460;-88
2024/02/20 04:29:49;;;;;;;13.63;5.67;;;;;;;;;;5049232;28;20460;-87
2024/02/20 04:33:03;;;;;;;11.50;5.77;;;;;;;;;;4950070;28;20468;-86
2024/02/20 04:35:37;;;;;;;12.97;5.97;;;;;;;;;;4948284;28;20457;-87
2024/02/20 04:38:56;;;;;;;15.03;5.30;;;;;;;;;;4951115;28;20704;-85
2024/02/20 04:41:41;;;;;;;10.83;5.90;;;;;;;;;;4951696;28;20472;-85
2024/02/20 04:44:24;;;;;;;11.60;6.37;;;;;;;;;;4967862;28;20464;-85
2024/02/20 04:47:14;;;;;;;11.93;5.60;;;;;;;;;;4951203;28;20504;-86
2024/02/20 04:50:05;;;;;;;16.20;5.07;;;;;;;;;;4956295;28;20452;-87
2024/02/20 04:53:11;;;;;;;12.63;5.83;;;;;;;;;;4951597;28;21049;-85
2024/02/20 04:56:06;;;;;;;10.10;5.30;;;;;;;;;;4964969;28;20464;-88
2024/02/20 04:58:53;;;;;;;11.87;6.70;;;;;;;;;;4946670;28;20515;-86
2024/02/20 05:01:33;;;;;;;14.53;5.63;;;;;;;;;;4948610;28;20482;-85
2024/02/20 05:04:38;;;;;;;13.37;6.13;;;;;;;;;;4951881;28;20464;-84
2024/02/20 05:10:40;;;;;;;16.03;7.20;;;;;;;;;;4936632;28;20485;-86
2024/02/20 05:13:08;;;;;;;15.00;5.83;;;;;;;;;;4947659;28;20996;-85
2024/02/20 05:15:40;;;;;;;14.10;6.30;;;;;;;;;;4933336;28;20453;-86
2024/02/20 05:18:15;;;;;;;17.60;6.60;;;;;;;;;;4926059;28;20461;-87
2024/02/20 05:21:00;;;;;;;18.10;6.53;;;;;;;;;;4932444;28;20440;-87
2024/02/20 05:23:37;;;;;;;15.27;6.13;;;;;;;;;;4944732;28;20459;-87
2024/02/20 05:26:14;;;;;;;14.00;6.90;;;;;;;;;;4948252;28;20468;-86
2024/02/20 05:29:11;;;;;;;16.23;6.40;;;;;;;;;;4948510;28;20453;-88
2024/02/20 05:31:43;;;;;;;11.80;6.80;;;;;;;;;;4952382;28;20489;-86
2024/02/20 05:34:45;;;;;;;19.50;7.43;;;;;;;;;;4953063;28;20744;-88
2024/02/20 05:37:24;;;;;;;10.63;6.23;;;;;;;;;;4948031;28;20502;-84
2024/02/20 05:40:10;;;;;;;11.47;6.00;;;;;;;;;;4941149;28;20481;-87
2024/02/20 05:42:40;;;;;;;12.97;6.53;;;;;;;;;;4952643;28;20933;-87
2024/02/20 05:45:18;;;;;;;15.20;7.47;;;;;;;;;;4953882;28;20738;-85
2024/02/20 05:47:52;;;;;;;15.30;6.63;;;;;;;;;;5001684;28;20454;-86
2024/02/20 05:50:23;;;;;;;16.70;7.00;;;;;;;;;;5047681;28;20437;-85
2024/02/20 05:52:53;;;;;;;17.13;6.53;;;;;;;;;;5043142;28;20461;-85
2024/02/20 05:55:28;;;;;;;16.73;7.00;;;;;;;;;;5042015;28;20692;-85
2024/02/20 05:58:00;;;;;;;15.27;6.70;;;;;;;;;;5049800;28;20852;-84
2024/02/20 06:00:31;;;;;;;18.73;7.60;;;;;;;;;;5030636;28;20491;-84
2024/02/20 06:03:05;;;;;;;18.83;7.30;;;;;;;;;;5046326;28;20491;-85
2024/02/20 06:05:59;;;;;;;17.23;7.40;;;;;;;;;;4977320;28;20443;-86
2024/02/20 06:08:26;;;;;;;20.17;7.47;;;;;;;;;;4971739;28;20554;-87
2024/02/20 06:11:02;;;;;;;21.10;7.67;;;;;;;;;;4977548;28;20467;-84
2024/02/20 06:13:36;;;;;;;12.47;9.47;;;;;;;;;;4975015;28;20458;-87
2024/02/20 06:16:26;;;;;;;17.60;8.33;;;;;;;;;;4979114;28;20855;-85
2024/02/20 06:19:00;;;;;;;19.50;7.90;;;;;;;;;;4971081;28;21062;-87
2024/02/20 06:21:28;;;;;;;18.83;7.90;;;;;;;;;;4974664;28;20467;-85
2024/02/20 06:24:10;;;;;;;19.03;8.07;;;;;;;;;;4978409;28;20590;-85
2024/02/20 06:30:47;;;;;;;14.57;7.60;;;;;;;;;;5048471;28;20512;-85
2024/02/20 06:33:33;;;;;;;20.10;8.33;;;;;;;;;;5047277;28;20869;-87
2024/02/20 06:36:32;;;;;;;17.80;8.67;;;;;;;;;;5050257;28;20425;-86
2024/02/20 06:39:16;;;;;;;18.23;7.97;;;;;;;;;;5056249;28;20531;-85
2024/02/20 06:41:49;;;;;;;17.97;7.30;;;;;;;;;;5035170;28;20461;-84
2024/02/20 06:44:38;;;;;;;16.47;7.43;;;;;;;;;;5057786;28;20440;-86
2024/02/20 06:47:18;;;;;;;16.10;8.00;;;;;;;;;;5048355;28;20465;-82
2024/02/20 06:50:23;;;;;;;17.13;8.07;;;;;;;;;;5062644;28;20518;-85
2024/02/20 07:00:31;;;;;;;18.63;7.93;;;;;;;;;;4961583;28;21689;-84
2024/02/20 07:03:37;;;;;;;16.70;7.37;;;;;;;;;;4970809;28;20455;-86
2024/02/20 07:06:20;;;;;;;19.90;8.07;;;;;;;;;;5007908;28;20486;-84
2024/02/20 07:12:09;;;;;;;19.20;8.00;;;;;;;;;;5053936;28;20485;-85
2024/02/20 07:15:17;;;;;;;18.90;7.80;;;;;;;;;;4963977;28;20495;-85
2024/02/20 07:18:35;;;;;;;;;;;;;;;;;;;;;
2024/02/20 07:21:19;;;;;;;17.27;7.83;;;;;;;;;;4979378;28;20876;-86
2024/02/20 07:23:50;;;;;;;16.60;8.50;;;;;;;;;;4981712;28;20516;-86
2024/02/20 07:26:46;;;;;;;21.47;8.50;;;;;;;;;;4968048;28;20436;-86
2024/02/20 07:29:45;;;;;;;19.70;7.90;;;;;;;;;;4951614;28;20463;-85
2024/02/20 07:32:45;;;;;;;14.40;7.33;;;;;;;;;;4916750;28;21017;-85
2024/02/20 07:35:20;;;;;;;19.13;8.53;;;;;;;;;;4953660;28;20453;-87
2024/02/20 07:38:07;;;;;;;10.63;7.33;;;;;;;;;;4956855;28;20464;-84
2024/02/20 07:40:46;;;;;;;15.83;8.63;;;;;;;;;;4953383;28;21222;-85
2024/02/20 07:43:36;;;;;;;17.77;8.00;;;;;;;;;;4962165;28;20463;-86
2024/02/20 07:46:37;;;;;;;17.80;9.20;;;;;;;;;;4950379;28;20439;-86
2024/02/20 07:49:35;;;;;;;16.63;8.83;;;;;;;;;;4956689;28;21051;-85
2024/02/20 07:52:24;;;;;;;13.10;7.03;;;;;;;;;;5007754;28;20480;-85
2024/02/20 07:55:14;;;;;;;22.60;7.80;;;;;;;;;;5031426;28;20492;-85
2024/02/20 07:58:02;;;;;;;16.00;8.40;;;;;;;;;;5019838;28;20526;-86
2024/02/20 08:00:56;;;;;;;25.63;8.37;;;;;;;;;;5014646;28;21131;-87
2024/02/20 08:03:36;;;;;;;17.93;8.47;;;;;;;;;;5011628;28;20480;-87
2024/02/20 08:06:09;;;;;;;19.10;10.40;;;;;;;;;;5010715;28;20450;-86
2024/02/20 08:08:53;;;;;;;18.43;8.37;;;;;;;;;;5014984;28;20450;-88
2024/02/20 08:19:00;;;;;;;17.33;8.63;;;;;;;;;;4990833;28;20448;-84
2024/02/20 08:21:46;;;;;;;21.23;9.80;;;;;;;;;;4961961;28;20473;-85
2024/02/20 08:24:30;;;;;;;17.80;8.20;;;;;;;;;;4979741;28;20504;-85
2024/02/20 08:27:12;;;;;;;20.03;9.83;;;;;;;;;;5044722;28;20433;-85
2024/02/20 08:29:50;;;;;;;22.17;8.70;;;;;;;;;;5064971;28;20448;-84
2024/02/20 08:32:22;;;;;;;18.23;8.70;;;;;;;;;;5044965;28;20494;-86
2024/02/20 08:35:04;;;;;;;15.57;8.60;;;;;;;;;;5061370;28;20471;-84
2024/02/20 08:37:37;;;;;;;14.80;7.80;;;;;;;;;;5065348;28;20445;-85
2024/02/20 08:40:08;;;;;;;18.90;7.87;;;;;;;;;;5067263;28;20471;-85
2024/02/20 08:42:41;;;;;;;16.13;7.73;;;;;;;;;;5067031;28;20463;-87
2024/02/20 08:45:25;;;;;;;22.07;8.33;;;;;;;;;;5080021;28;20416;-85
2024/02/20 08:47:59;;;;;;;19.90;8.23;;;;;;;;;;5080464;28;20607;-86
2024/02/20 08:57:10;;;;;;;21.17;7.00;;;;;;;;;;5047543;28;20496;-85
2024/02/20 08:59:56;;;;;;;15.40;7.13;;;;;;;;;;5063921;28;20480;-84
2024/02/20 09:02:35;;;;;;;18.57;7.30;;;;;;;;;;5060246;28;21013;-88
2024/02/20 09:05:13;;;;;;;16.50;6.40;;;;;;;;;;5040773;28;20461;-84
2024/02/20 09:07:49;;;;;;;17.53;7.73;;;;;;;;;;5048005;28;20530;-85
2024/02/20 09:10:46;;;;;;;18.97;7.10;;;;;;;;;;5042529;28;20471;-87
2024/02/20 09:13:41;;;;;;;14.60;6.57;;;;;;;;;;5047350;28;20471;-84
2024/02/20 09:16:40;;;;;;;11.10;6.27;;;;;;;;;;5045092;28;20441;-85
2024/02/20 09:19:49;;;;;;;14.23;6.20;;;;;;;;;;5048488;28;20473;-85
2024/02/20 09:22:38;;;;;;;15.90;7.60;;;;;;;;;;5039246;28;20504;-85
2024/02/20 09:25:22;;;;;;;12.60;6.10;;;;;;;;;;5060155;28;20530;-84
2024/02/20 09:28:01;;;;;;;20.97;6.93;;;;;;;;;;5046683;28;20459;-87
2024/02/20 09:30:42;;;;;;;10.50;6.20;;;;;;;;;;5046684;28;20471;-84
2024/02/20 09:33:18;;;;;;;18.50;7.30;;;;;;;;;;5048356;28;20465;-85
2024/02/20 09:35:46;;;;;;;12.77;6.23;;;;;;;;;;5049789;28;20457;-84
2024/02/20 09:38:20;;;;;;;15.90;7.10;;;;;;;;;;5045684;28;20441;-85
2024/02/20 09:41:09;;;;;;;11.63;5.87;;;;;;;;;;5031332;28;20484;-84
2024/02/20 09:43:42;;;;;;;15.73;6.70;;;;;;;;;;5047831;28;20459;-86
2024/02/20 09:46:14;;;;;;;22.53;7.90;;;;;;;;;;5046365;28;21345;-84
2024/02/20 09:48:44;;;;;;;17.80;6.43;;;;;;;;;;5052123;28;21079;-85
2024/02/20 09:51:22;;;;;;;13.30;6.60;;;;;;;;;;5050854;28;20444;-86
2024/02/20 09:53:58;;;;;;;15.17;6.37;;;;;;;;;;5045032;28;20467;-86
2024/02/20 09:56:41;;;;;;;18.67;6.87;;;;;;;;;;5058531;28;20980;-87
2024/02/20 09:59:21;;;;;;;14.80;5.10;;;;;;;;;;5051826;28;20487;-86
2024/02/20 10:01:54;;;;;;;13.50;5.57;;;;;;;;;;5054713;28;20482;-85
2024/02/20 10:04:22;;;;;;;12.87;6.40;;;;;;;;;;5081424;22;20495;-85
2024/02/20 10:09:44;;;;;;;11.43;5.63;;;;;;;;;;5021208;23;20557;-85
2024/02/20 10:12:21;;;;;;;13.00;4.77;;;;;;;;;;4977532;28;20499;-86
2024/02/20 10:14:58;;;;;;;18.27;5.00;;;;;;;;;;4986127;28;20448;-87
2024/02/20 10:17:33;;;;;;;10.60;5.87;;;;;;;;;;5069978;22;20572;-85
2024/02/20 10:20:11;;;;;;;11.67;4.50;;;;;;;;;;5009569;28;20570;-84
2024/02/20 10:26:01;;;;;;;12.03;4.90;;;;;;;;;;5041955;23;20500;-84
2024/02/20 10:28:32;;;;;;;11.63;4.90;;;;;;;;;;4972894;28;20431;-84
2024/02/20 10:31:03;;;;;;;8.93;5.50;;;;;;;;;;4975976;28;20525;-84
2024/02/20 10:33:55;;;;;;;14.43;5.03;;;;;;;;;;4971824;28;20543;-86
2024/02/20 10:36:33;;;;;;;16.33;5.90;;;;;;;;;;4986020;28;20447;-86
2024/02/20 10:39:12;;;;;;;13.23;6.17;;;;;;;;;;4975676;28;20456;-84
2024/02/20 10:41:48;;;;;;;16.60;6.40;;;;;;;;;;4985974;28;20502;-87
2024/02/20 10:44:33;;;;;;;20.80;6.10;;;;;;;;;;4982244;28;20520;-87
2024/02/20 10:47:07;;;;;;;13.50;6.63;;;;;;;;;;4949553;28;20545;-86
2024/02/20 10:49:39;;;;;;;16.53;6.20;;;;;;;;;;4983189;28;20511;-86
2024/02/20 10:52:16;;;;;;;14.67;5.43;;;;;;;;;;4968558;28;20752;-86
2024/02/20 10:54:59;;;;;;;14.47;5.77;;;;;;;;;;4983358;28;20958;-86
2024/02/20 10:57:41;;;;;;;15.27;5.80;;;;;;;;;;4981909;28;20443;-85
2024/02/20 11:00:18;;;;;;;20.53;6.40;;;;;;;;;;4985566;28;20494;-88
2024/02/20 11:02:58;;;;;;;13.20;5.73;;;;;;;;;;4987175;28;20459;-85
2024/02/20 11:05:31;;;;;;;13.83;5.50;;;;;;;;;;4980744;28;20450;-86
2024/02/20 11:08:14;;;;;;;16.60;4.80;;;;;;;;;;4975644;28;20452;-86
2024/02/20 11:10:46;;;;;;;10.30;5.50;;;;;;;;;;4976517;28;20716;-84
2024/02/20 11:13:41;;;;;;;16.40;5.40;;;;;;;;;;4986828;28;20504;-85
2024/02/20 11:16:25;;;;;;;12.90;5.27;;;;;;;;;;4985671;28;21195;-83
2024/02/20 11:19:19;;;;;;;13.33;4.70;;;;;;;;;;4989999;28;20448;-84
2024/02/20 11:22:07;;;;;;;14.10;5.20;;;;;;;;;;4990703;28;20574;-85
2024/02/20 11:24:38;;;;;;;12.80;4.70;;;;;;;;;;4991768;28;20471;-86
2024/02/20 11:27:28;;;;;;;13.60;5.60;;;;;;;;;;4974406;28;20448;-84
2024/02/20 11:30:26;;;;;;;11.57;4.40;;;;;;;;;;4990554;28;20507;-85
2024/02/20 11:33:12;;;;;;;8.50;4.07;;;;;;;;;;4982568;28;20498;-85
2024/02/20 11:35:48;;;;;;;15.97;4.50;;;;;;;;;;4989144;28;20419;-84
2024/02/20 11:38:28;;;;;;;9.83;4.60;;;;;;;;;;5006162;28;20458;-84
2024/02/20 11:43:28;;;;;;;11.73;4.30;;;;;;;;;;5035355;23;20476;-86
2024/02/20 11:45:59;;;;;;;11.70;5.30;;;;;;;;;;5012414;28;20490;-86
2024/02/20 11:48:33;;;;;;;9.40;5.20;;;;;;;;;;5005192;28;22324;-86
2024/02/20 11:51:20;;;;;;;16.63;4.80;;;;;;;;;;4996499;28;20834;-85
2024/02/20 11:53:54;;;;;;;7.20;3.60;;;;;;;;;;4992949;28;21053;-86
2024/02/20 11:56:28;;;;;;;9.60;4.33;;;;;;;;;;4995950;28;20710;-86
2024/02/20 11:59:06;;;;;;;10.50;4.50;;;;;;;;;;5010301;28;20508;-86
2024/02/20 12:01:43;;;;;;;10.60;3.83;;;;;;;;;;4996009;28;20565;-88
2024/02/20 12:04:56;;;;;;;11.33;4.20;;;;;;;;;;4999936;28;20561;-85
2024/02/20 12:07:34;;;;;;;11.30;3.37;;;;;;;;;;4973047;28;20465;-85
2024/02/20 12:10:04;;;;;;;6.73;3.43;;;;;;;;;;5016634;28;20448;-85
2024/02/20 12:12:35;;;;;;;9.90;3.37;;;;;;;;;;4993453;28;20490;-86
2024/02/20 12:15:24;;;;;;;10.40;4.17;;;;;;;;;;5017030;28;20510;-87
2024/02/20 12:18:16;;;;;;;10.87;3.80;;;;;;;;;;4998272;28;20470;-85
2024/02/20 12:21:27;;;;;;;7.90;2.67;;;;;;;;;;4991579;28;20498;-85
2024/02/20 12:24:07;;;;;;;15.40;4.37;;;;;;;;;;4989805;28;20450;-86
2024/02/20 12:26:53;;;;;;;12.40;3.60;;;;;;;;;;5005882;28;20458;-84
2024/02/20 12:29:26;;;;;;;8.00;3.77;;;;;;;;;;5005221;28;20546;-84
2024/02/20 12:32:04;;;;;;;7.13;3.90;;;;;;;;;;5009489;22;20526;-87
2024/02/20 12:34:40;;;;;;;12.13;3.70;;;;;;;;;;4980370;28;20499;-85
2024/02/20 12:41:12;;;;;;;12.60;4.40;;;;;;;;;;5001401;28;20502;-88
2024/02/20 12:44:02;;;;;;;14.07;4.90;;;;;;;;;;4965248;28;20817;-85
2024/02/20 12:46:46;;;;;;;10.10;3.63;;;;;;;;;;4963598;28;20452;-86
2024/02/20 12:49:19;;;;;;;12.17;3.67;;;;;;;;;;4979305;28;20480;-84
2024/02/20 12:51:53;;;;;;;10.40;3.60;;;;;;;;;;4984932;28;20496;-84
2024/02/20 12:54:37;;;;;;;11.20;3.83;;;;;;;;;;4970169;28;20604;-85
2024/02/20 12:57:14;;;;;;;13.37;3.90;;;;;;;;;;4975340;28;20440;-84
2024/02/20 12:59:47;;;;;;;11.20;3.07;;;;;;;;;;4994246;28;20466;-86
2024/02/20 13:02:32;;;;;;;7.70;3.13;;;;;;;;;;4995405;28;20490;-84
2024/02/20 13:05:09;;;;;;;11.80;3.73;;;;;;;;;;4996168;28;20456;-85
2024/02/20 13:07:53;;;;;;;7.63;3.13;;;;;;;;;;4971524;28;20510;-85
2024/02/20 13:10:35;;;;;;;10.80;3.67;;;;;;;;;;4974448;28;20456;-85
2024/02/20 13:13:05;;;;;;;8.20;3.10;;;;;;;;;;4995570;28;20534;-85
2024/02/20 13:18:22;;;;;;;7.83;2.83;;;;;;;;;;5007946;28;20578;-83
2024/02/20 13:21:05;;;;;;;11.07;3.20;;;;;;;;;;5007647;28;20550;-87
2024/02/20 13:23:53;;;;;;;;;;;;;;;;;;;;;
2024/02/20 13:30:02;;;;;;;13.03;3.53;;;;;;;;;;5004524;28;20418;-86
2024/02/20 13:32:40;;;;;;;17.23;4.10;;;;;;;;;;4970583;28;20486;-85
2024/02/20 13:35:30;;;;;;;13.83;3.60;;;;;;;;;;5000247;28;20502;-83
2024/02/20 13:38:07;;;;;;;9.87;3.00;;;;;;;;;;5016602;28;20480;-85
2024/02/20 13:40:38;;;;;;;9.67;3.07;;;;;;;;;;5021127;28;20482;-85
2024/02/20 13:46:33;;;;;;;7.97;2.83;;;;;;;;;;5048390;28;20454;-83
2024/02/20 13:49:36;;;;;;;8.67;2.70;;;;;;;;;;5037115;28;20488;-87
2024/02/20 13:52:09;;;;;;;9.53;3.07;;;;;;;;;;5045690;28;20477;-85
2024/02/20 13:54:51;;;;;;;8.47;3.23;;;;;;;;;;5018581;28;20441;-87
2024/02/20 13:57:29;;;;;;;5.17;2.80;;;;;;;;;;5032725;28;20457;-88
2024/02/20 14:00:11;;;;;;;8.80;2.90;;;;;;;;;;5012992;28;20526;-86
2024/02/20 14:02:46;;;;;;;9.20;2.40;;;;;;;;;;5009624;28;20469;-84
2024/02/20 14:05:23;;;;;;;7.83;2.90;;;;;;;;;;5013981;28;20418;-84
2024/02/20 14:07:52;;;;;;;8.83;3.10;;;;;;;;;;5013501;28;20455;-86
2024/02/20 14:10:29;;;;;;;8.17;2.77;;;;;;;;;;5028111;28;20458;-88
2024/02/20 14:13:08;;;;;;;10.90;2.33;;;;;;;;;;5016608;28;20477;-84
2024/02/20 14:15:55;;;;;;;9.63;3.13;;;;;;;;;;5025565;28;20441;-87
2024/02/20 14:18:34;;;;;;;8.13;2.70;;;;;;;;;;5022588;28;20465;-85
2024/02/20 14:21:13;;;;;;;6.23;2.67;;;;;;;;;;5025876;28;20487;-86
2024/02/20 14:23:56;;;;;;;9.57;3.20;;;;;;;;;;5002521;28;20462;-83
2024/02/20 14:26:36;;;;;;;7.03;3.10;;;;;;;;;;5020206;28;20457;-85
2024/02/20 14:29:04;;;;;;;8.93;3.30;;;;;;;;;;5022914;28;20458;-86
2024/02/20 14:31:37;;;;;;;6.27;2.90;;;;;;;;;;5028190;28;20477;-85
2024/02/20 14:34:11;;;;;;;8.47;3.60;;;;;;;;;;5029429;28;20450;-85
2024/02/20 14:36:44;;;;;;;6.37;2.43;;;;;;;;;;5032436;28;20461;-86
2024/02/20 14:39:20;;;;;;;6.67;3.00;;;;;;;;;;5008654;28;20453;-88
2024/02/20 14:41:49;;;;;;;8.07;3.27;;;;;;;;;;5021355;28;20547;-85
2024/02/20 14:44:22;;;;;;;10.30;3.93;;;;;;;;;;5006304;28;20501;-85
2024/02/20 14:46:54;;;;;;;7.73;3.30;;;;;;;;;;5008215;28;20453;-86
2024/02/20 14:49:31;;;;;;;6.97;2.10;;;;;;;;;;5002866;28;20526;-86
2024/02/20 14:52:05;;;;;;;6.63;2.70;;;;;;;;;;5020388;28;20478;-86
2024/02/20 14:54:34;;;;;;;10.77;2.67;;;;;;;;;;5000205;28;20460;-85
2024/02/20 14:57:08;;;;;;;12.93;2.60;;;;;;;;;;5003562;28;20472;-84
2024/02/20 14:59:38;;;;;;;5.13;2.40;;;;;;;;;;5021077;28;20438;-86
2024/02/20 15:02:12;;;;;;;5.27;2.50;;;;;;;;;;5008998;28;20481;-84
2024/02/20 15:04:49;;;;;;;11.10;2.43;;;;;;;;;;5009777;28;20556;-85
2024/02/20 15:07:28;;;;;;;10.47;3.20;;;;;;;;;;4998353;28;20488;-86
2024/02/20 15:09:57;;;;;;;9.70;3.10;;;;;;;;;;5007602;28;20506;-85
2024/02/20 15:12:31;;;;;;;7.80;2.70;;;;;;;;;;5010004;28;20501;-86
2024/02/20 15:15:05;;;;;;;8.27;2.77;;;;;;;;;;5026462;28;20450;-86
2024/02/20 15:17:42;;;;;;;6.90;2.57;;;;;;;;;;5015644;28;20465;-85
2024/02/20 15:22:40;;;;;;;4.97;2.43;;;;;;;;;;5004013;28;20470;-85
2024/02/20 15:25:19;;;;;;;5.20;2.20;;;;;;;;;;5002988;28;20482;-87
2024/02/20 15:27:53;;;;;;;9.77;3.13;;;;;;;;;;4980347;28;20475;-85
2024/02/20 15:30:31;;;;;;;5.70;2.67;;;;;;;;;;4995100;28;20454;-86
2024/02/20 15:32:59;;;;;;;3.73;2.83;;;;;;;;;;4998681;28;20485;-85
2024/02/20 15:36:02;;;;;;;4.23;2.30;;;;;;;;;;4998898;28;20627;-86
2024/02/20 15:38:37;;;;;;;9.43;2.80;;;;;;;;;;4990003;28;20597;-84
2024/02/20 15:41:07;;;;;;;8.50;3.00;;;;;;;;;;4985900;28;20563;-86
2024/02/20 15:43:48;;;;;;;9.13;2.93;;;;;;;;;;4990154;28;20531;-85
2024/02/20 15:46:25;;;;;;;5.97;2.93;;;;;;;;;;4988339;28;21405;-84
2024/02/20 15:49:07;;;;;;;4.50;2.63;;;;;;;;;;4987548;28;20570;-85
2024/02/20 15:51:46;;;;;;;5.50;2.67;;;;;;;;;;4989895;28;20520;-85
2024/02/20 15:54:35;;;;;;;4.43;2.33;;;;;;;;;;4986005;28;20458;-86
2024/02/20 15:57:06;;;;;;;6.90;3.30;;;;;;;;;;4992042;28;20459;-84
2024/02/20 15:59:51;;;;;;;6.50;2.80;;;;;;;;;;4986684;28;20463;-85
2024/02/20 16:02:28;;;;;;;8.37;3.00;;;;;;;;;;4986122;28;20498;-84
2024/02/20 16:05:12;;;;;;;8.10;3.17;;;;;;;;;;4985426;28;20827;-83
2024/02/20 16:07:41;;;;;;;6.40;3.40;;;;;;;;;;5001465;28;20521;-85
2024/02/20 16:10:21;;;;;;;6.80;2.70;;;;;;;;;;4988160;28;20454;-85
2024/02/20 16:13:03;;;;;;;6.23;2.83;;;;;;;;;;4984025;28;20509;-84
2024/02/20 16:15:35;;;;;;;7.27;3.00;;;;;;;;;;4985257;28;22411;-85
2024/02/20 16:18:27;;;;;;;6.77;3.00;;;;;;;;;;4998954;28;20446;-84
2024/02/20 16:21:03;;;;;;;7.73;3.00;;;;;;;;;;5002158;28;20550;-85
2024/02/20 16:23:44;;;;;;;8.73;3.00;;;;;;;;;;4968445;28;20467;-87
2024/02/20 16:26:21;;;;;;;5.80;2.67;;;;;;;;;;4992111;28;20455;-83
2024/02/20 16:29:02;;;;;;;8.20;2.33;;;;;;;;;;4996267;28;21181;-85
2024/02/20 16:31:34;;;;;;;7.27;3.23;;;;;;;;;;5001590;28;20507;-86
2024/02/20 16:34:05;;;;;;;11.17;3.13;;;;;;;;;;4992397;28;20432;-85
2024/02/20 16:36:59;;;;;;;5.47;3.00;;;;;;;;;;5002541;28;20454;-84
2024/02/20 16:39:53;;;;;;;5.50;2.30;;;;;;;;;;4978595;28;20446;-85
2024/02/20 16:42:33;;;;;;;5.90;2.83;;;;;;;;;;5006488;28;20459;-85
2024/02/20 16:45:04;;;;;;;8.27;3.00;;;;;;;;;;4987839;28;20489;-84
2024/02/20 16:47:50;;;;;;;4.83;2.77;;;;;;;;;;4996843;28;20446;-86
2024/02/20 16:50:46;;;;;;;7.50;2.70;;;;;;;;;;5018595;28;20442;-85
2024/02/20 16:53:16;;;;;;;4.80;2.77;;;;;;;;;;5010650;28;21046;-84
2024/02/20 16:55:51;;;;;;;5.83;3.23;;;;;;;;;;5012037;28;20455;-84
2024/02/20 16:58:32;;;;;;;6.67;3.27;;;;;;;;;;5019227;28;20449;-87
2024/02/20 17:01:02;;;;;;;10.03;3.90;;;;;;;;;;5009971;28;20474;-82
2024/02/20 17:03:36;;;;;;;10.20;5.43;;;;;;;;;;5008059;28;20478;-86
2024/02/20 17:06:17;;;;;;;8.23;2.80;;;;;;;;;;5025208;28;20521;-86
2024/02/20 17:09:04;;;;;;;5.53;3.20;;;;;;;;;;5006579;28;20466;-83
2024/02/20 17:11:55;;;;;;;12.40;3.30;;;;;;;;;;5143459;23;20714;-85
2024/02/20 17:14:35;;;;;;;7.40;2.93;;;;;;;;;;5014818;28;20431;-83
2024/02/20 17:17:09;;;;;;;6.20;2.70;;;;;;;;;;5021496;28;20512;-85
2024/02/20 17:19:45;;;;;;;9.43;3.90;;;;;;;;;;5018492;28;20477;-83
2024/02/20 17:22:23;;;;;;;6.43;3.30;;;;;;;;;;5012022;28;20506;-85
2024/02/20 17:31:34;;;;;;;8.53;2.80;;;;;;;;;;4990565;28;20597;-85
2024/02/20 17:34:25;;;;;;;7.23;3.50;;;;;;;;;;4963750;28;20435;-86
2024/02/20 17:37:06;;;;;;;5.80;3.10;;;;;;;;;;4985607;28;20514;-85
2024/02/20 17:40:07;;;;;;;10.33;3.40;;;;;;;;;;4977276;28;20442;-84
2024/02/20 17:43:03;;;;;;;6.83;3.73;;;;;;;;;;4983816;28;20475;-84
2024/02/20 17:45:51;;;;;;;10.73;4.23;;;;;;;;;;4951277;28;20439;-86
2024/02/20 17:48:25;;;;;;;8.80;3.33;;;;;;;;;;4978027;28;20442;-84
2024/02/20 17:51:24;;;;;;;9.40;4.50;;;;;;;;;;4984987;28;20456;-87
2024/02/20 17:53:58;;;;;;;7.43;3.00;;;;;;;;;;4974934;28;20460;-83
2024/02/20 17:56:39;;;;;;;7.43;3.60;;;;;;;;;;4979599;28;20455;-84
2024/02/20 17:59:19;;;;;;;6.83;3.10;;;;;;;;;;4966280;28;20453;-84
2024/02/20 18:02:07;;;;;;;7.33;3.10;;;;;;;;;;4961916;28;20566;-84
2024/02/20 18:05:09;;;;;;;;;;;;;;;;;;;;;
2024/02/20 18:07:54;;;;;;;9.17;3.83;;;;;;;;;;4983942;28;20479;-86
2024/02/20 18:10:42;;;;;;;8.40;4.03;;;;;;;;;;4967337;28;20484;-83
2024/02/20 18:13:14;;;;;;;9.80;4.23;;;;;;;;;;4981238;28;20497;-82
2024/02/20 18:16:05;;;;;;;7.40;3.67;;;;;;;;;;4980866;28;20445;-83
2024/02/20 18:18:46;;;;;;;11.73;4.20;;;;;;;;;;4969166;28;20926;-84
2024/02/20 18:21:27;;;;;;;7.53;4.13;;;;;;;;;;4972848;28;20547;-87